Chanute, KS

3:09 PM CST on February 21, 2017 (GMT -0600)
Chanute Martin Johnson | | Change Station

Elev 1001 ft 37.67 °N, 95.49 °W | Updated 17 minutes ago

Clear
Clear
73 °F
Feels Like 73 °F
N
9
Wind Variable Wind from NNW

Today
High -- | Low -- °F
--% Chance of Precip.
Yesterday
High -- | Low -- °F
Precip. -- in
Pressure 29.91 in
Visibility 10.0 miles
Clouds Clear
Dew Point 48 °F
Humidity 41%
Rainfall 0.00 in
Snow Depth Not available.
7:03 AM 6:07 PM
Waning Crescent, 22% visible
METAR KCNU 212052Z AUTO 34008KT 310V020 10SM CLR 23/09 A2992 RMK AO2 SLP128 T02280089 56020
Pressure 29.91 in
Visibility 10.0 miles
Clouds Clear
Dew Point 48 °F
Humidity 41%
Rainfall 0.00 in
Snow Depth Not available.
7:03 AM 6:07 PM
Waning Crescent, 22% visible
METAR KCNU 212052Z AUTO 34008KT 310V020 10SM CLR 23/09 A2992 RMK AO2 SLP128 T02280089 56020

Get Your Daily Forecast Email!

Thanks for signing up!

Be on the lookout for a verification email in your inbox.

You'll start receiving the daily forecast at 8 AM.

×

10-Day Weather Forecast

Almanac

Astronomy

Feb. 21, 2017 Rise Set
Actual Time
Civil Twilight
Nautical Twilight
Astronomical Twilight
Moon
Length of Visible Light
Length of Day
Tomorrow will be .
, % of the Moon is Illuminated

Today's Extremes

State Highs State Lows

Community

WunderPhotos

Upload Photos

1,962,540 photos uploaded!

WunderBlog® & News

Nearby

Air Quality

  Air Quality AQ Index Pollutant
Not available.

Snow Depth

Station Depth Elevation

Earthquake Activity

City Distance Mag. Time & Date
Minimum magnitude displayed is 2.5.

Coastal Water Temperatures

Place Temperature

Stations

Nearby Weather Stations

Station Location Temp. Windchill Dew Point Humidity Wind Precip. Elev Updated Type
                   

Watches & Warnings

There are currently no watches in effect.